Time;durP1;ratioP1;P1;durP2;ratioP2;P2;SDS_P1;SDS_P2;PMS_P1;PMS_P2;Temp;Humidity;BMP_temperature;BMP_pressure;BME280_temperature;BME280_humidity;BME280_pressure;Samples;Min_cycle;Max_cycle;Signal;HPM_P1;HPM_P2
2021/07/08 00:00:55;;;;;;;9.60;3.75;;;;;;;20.88;66.67;100228.05;129867;1091;23715;-58
2021/07/08 00:03:25;;;;;;;7.38;3.95;;;;;;;20.89;66.55;100232.47;129857;1093;22521;-58
2021/07/08 00:05:53;;;;;;;10.78;4.05;;;;;;;20.91;66.68;100231.03;129724;1093;113627;-58
2021/07/08 00:08:22;;;;;;;7.35;3.38;;;;;;;20.93;66.38;100227.92;129850;1092;22536;-58
2021/07/08 00:10:54;;;;;;;8.35;3.93;;;;;;;20.95;66.31;100231.21;129764;1093;113759;-58
2021/07/08 00:13:25;;;;;;;12.80;3.98;;;;;;;20.95;66.52;100218.19;129853;1092;22553;-58
2021/07/08 00:15:54;;;;;;;6.48;3.80;;;;;;;20.96;66.46;100219.83;129685;1093;114234;-58
2021/07/08 00:18:24;;;;;;;6.48;3.90;;;;;;;20.97;66.47;100227.01;129822;1092;22576;-58
2021/07/08 00:20:53;;;;;;;5.60;3.70;;;;;;;20.96;66.40;100232.86;129772;1093;23217;-58
2021/07/08 00:23:22;;;;;;;10.33;4.70;;;;;;;20.95;66.22;100232.03;129725;1092;114167;-58
2021/07/08 00:25:52;;;;;;;8.58;4.25;;;;;;;20.94;66.36;100224.85;129838;1093;22571;-58
2021/07/08 00:28:33;;;;;;;11.93;4.65;;;;;;;20.94;66.28;100227.63;129734;1092;115098;-58
2021/07/08 00:31:02;;;;;;;9.35;4.15;;;;;;;20.95;66.29;100225.67;129873;1092;22515;-58
2021/07/08 00:33:32;;;;;;;7.63;4.58;;;;;;;20.92;66.42;100229.09;129854;1092;22629;-58
2021/07/08 00:36:01;;;;;;;6.40;4.50;;;;;;;20.91;66.41;100231.03;128114;1093;113572;-57
2021/07/08 00:38:31;;;;;;;9.43;4.70;;;;;;;20.90;66.78;100232.16;125244;1093;22838;-56
2021/07/08 00:41:00;;;;;;;11.73;4.40;;;;;;;20.90;66.75;100225.80;125129;1092;113789;-57
2021/07/08 00:43:30;;;;;;;9.98;5.00;;;;;;;20.91;66.74;100231.03;129695;1093;22582;-58
2021/07/08 00:45:59;;;;;;;7.25;4.35;;;;;;;20.92;66.61;100226.31;129747;1092;114172;-58
2021/07/08 00:48:28;;;;;;;6.23;4.50;;;;;;;20.94;66.60;100222.08;129853;1093;22564;-59
2021/07/08 00:50:57;;;;;;;7.33;4.68;;;;;;;20.94;66.53;100221.26;129844;1093;22548;-59
2021/07/08 00:53:27;;;;;;;10.23;4.58;;;;;;;20.92;66.52;100221.56;129748;1093;113747;-58
2021/07/08 00:55:58;;;;;;;8.95;4.25;;;;;;;20.90;66.66;100214.72;129850;1093;22691;-58
2021/07/08 00:58:27;;;;;;;9.38;4.28;;;;;;;20.92;66.60;100220.77;129690;1092;113851;-58
2021/07/08 01:00:56;;;;;;;8.70;4.55;;;;;;;20.89;66.84;100221.39;129868;1093;22528;-58
2021/07/08 01:03:25;;;;;;;10.10;4.63;;;;;;;20.87;66.95;100218.92;129844;1093;22541;-59
2021/07/08 01:05:54;;;;;;;10.90;4.78;;;;;;;20.87;66.76;100223.64;129708;1093;113695;-59
2021/07/08 01:08:23;;;;;;;8.30;4.73;;;;;;;20.87;67.19;100220.88;129845;1093;23722;-59
2021/07/08 01:10:52;;;;;;;8.48;5.38;;;;;;;20.86;67.00;100216.46;129769;1092;113745;-58
2021/07/08 01:13:21;;;;;;;8.15;4.73;;;;;;;20.86;67.01;100224.77;129843;1093;22535;-58
2021/07/08 01:15:50;;;;;;;13.60;5.45;;;;;;;20.83;67.16;100229.80;129721;1093;114327;-58
2021/07/08 01:18:20;;;;;;;8.18;5.45;;;;;;;20.79;67.33;100228.77;129852;1092;23619;-58
2021/07/08 01:20:49;;;;;;;13.28;5.95;;;;;;;20.79;67.18;100227.94;129875;1093;22571;-58
2021/07/08 01:23:17;;;;;;;7.75;5.68;;;;;;;20.77;67.54;100231.05;129730;1092;113942;-58
2021/07/08 01:25:46;;;;;;;11.85;5.45;;;;;;;20.76;67.58;100229.41;129877;1093;23084;-58
2021/07/08 01:28:15;;;;;;;8.65;5.33;;;;;;;20.75;67.60;100227.77;129756;1093;114430;-58
2021/07/08 01:30:46;;;;;;;12.63;5.68;;;;;;;20.75;67.67;100232.48;129741;1093;23470;-58
2021/07/08 01:33:15;;;;;;;12.98;5.60;;;;;;;20.73;67.69;100237.50;129848;1093;22523;-58
2021/07/08 01:35:44;;;;;;;11.58;5.53;;;;;;;20.71;67.70;100236.98;129751;1093;114286;-58
2021/07/08 01:38:13;;;;;;;11.03;5.35;;;;;;;20.70;67.79;100247.23;129799;1093;23408;-58
2021/07/08 01:40:42;;;;;;;8.15;5.03;;;;;;;20.70;67.79;100243.64;129688;1092;114135;-58
2021/07/08 01:43:10;;;;;;;7.23;4.88;;;;;;;20.69;68.06;100242.00;129883;1093;22533;-58
2021/07/08 01:45:42;;;;;;;7.20;5.00;;;;;;;20.68;67.86;100243.95;129718;1093;114047;-58
2021/07/08 01:48:11;;;;;;;9.80;4.83;;;;;;;20.69;68.17;100251.13;129823;1093;22565;-58
2021/07/08 01:50:41;;;;;;;6.65;4.58;;;;;;;20.69;68.00;100244.77;129823;1093;22520;-59
2021/07/08 01:53:10;;;;;;;10.30;4.60;;;;;;;20.67;68.12;100247.02;129716;1093;113954;-59
2021/07/08 01:55:39;;;;;;;5.88;4.33;;;;;;;20.66;68.03;100248.15;129846;1093;22539;-58
2021/07/08 01:58:08;;;;;;;5.95;4.63;;;;;;;20.63;68.43;100249.58;129698;1093;114090;-58
2021/07/08 02:00:37;;;;;;;8.65;5.00;;;;;;;20.63;68.50;100249.58;129837;1093;22645;-58
2021/07/08 02:03:07;;;;;;;12.43;4.80;;;;;;;20.62;68.53;100247.14;129848;1092;22537;-58
2021/07/08 02:05:35;;;;;;;13.48;4.85;;;;;;;20.60;68.43;100246.63;129694;1092;114916;-59
2021/07/08 02:08:04;;;;;;;7.68;5.25;;;;;;;20.58;68.58;100246.11;129815;1093;22545;-58
2021/07/08 02:10:33;;;;;;;7.88;4.65;;;;;;;20.57;68.60;100241.70;129726;1092;114399;-58
2021/07/08 02:13:02;;;;;;;9.25;4.73;;;;;;;20.53;68.97;100247.02;129875;1091;22519;-58
2021/07/08 02:15:31;;;;;;;13.87;4.93;;;;;;;20.52;68.83;100242.61;129206;1093;22808;-57
2021/07/08 02:18:00;;;;;;;10.10;4.38;;;;;;;20.49;69.16;100251.52;125186;1092;114821;-57
2021/07/08 02:20:29;;;;;;;7.38;4.70;;;;;;;20.45;69.15;100247.74;125189;1093;25588;-58
2021/07/08 02:22:58;;;;;;;9.38;5.63;;;;;;;20.41;69.27;100260.55;129725;1092;114050;-59
2021/07/08 02:25:27;;;;;;;11.58;5.00;;;;;;;20.38;69.35;100261.97;129839;1093;23373;-59
2021/07/08 02:27:58;;;;;;;9.95;5.35;;;;;;;20.36;69.59;100260.63;129777;1093;114612;-59
2021/07/08 02:30:27;;;;;;;5.53;4.58;;;;;;;20.37;69.79;100265.86;129872;1093;22624;-59
2021/07/08 02:32:57;;;;;;;8.85;4.68;;;;;;;20.38;69.74;100261.97;129864;1092;22642;-59
2021/07/08 02:35:26;;;;;;;6.43;4.53;;;;;;;20.42;69.86;100262.19;129759;1093;114191;-59
2021/07/08 02:37:55;;;;;;;13.20;4.83;;;;;;;20.43;69.83;100267.42;129878;1093;22527;-59
2021/07/08 02:40:27;;;;;;;7.65;4.78;;;;;;;20.43;69.58;100264.66;129755;1092;114500;-59
2021/07/08 02:42:57;;;;;;;6.00;4.70;;;;;;;20.45;69.85;100267.12;129829;1092;23353;-59
2021/07/08 02:45:28;;;;;;;10.30;4.73;;;;;;;20.45;69.80;100265.17;129928;1093;22514;-58
2021/07/08 02:47:58;;;;;;;7.53;5.48;;;;;;;20.48;69.72;100260.98;129752;1093;114313;-58
2021/07/08 02:50:27;;;;;;;6.10;4.50;;;;;;;20.51;69.71;100262.29;129886;1092;22576;-58
2021/07/08 02:52:59;;;;;;;7.28;4.80;;;;;;;20.53;69.54;100263.63;130431;1085;114321;-58
2021/07/08 02:55:28;;;;;;;7.38;4.63;;;;;;;20.55;69.65;100261.38;130493;1086;22548;-58
2021/07/08 02:57:59;;;;;;;10.78;4.45;;;;;;;20.58;69.74;100266.31;130373;1087;114171;-58
2021/07/08 03:00:30;;;;;;;7.75;5.08;;;;;;;20.62;69.83;100261.81;130484;1085;22640;-58
2021/07/08 03:02:59;;;;;;;8.60;5.13;;;;;;;20.67;69.53;100264.46;130548;1085;22575;-58
2021/07/08 03:05:28;;;;;;;6.73;4.98;;;;;;;20.71;69.71;100268.27;130385;1086;113950;-58
2021/07/08 03:07:57;;;;;;;9.63;5.70;;;;;;;20.76;69.55;100262.64;130488;1087;22720;-58
2021/07/08 03:10:28;;;;;;;9.70;5.00;;;;;;;20.83;69.65;100270.52;130419;1087;114565;-58
2021/07/08 03:12:57;;;;;;;11.93;5.43;;;;;;;20.87;69.66;100274.33;130503;1087;22511;-58
2021/07/08 03:15:27;;;;;;;12.20;5.20;;;;;;;20.94;69.56;100269.17;129971;1086;22621;-57
2021/07/08 03:18:08;;;;;;;12.03;5.30;;;;;;;20.99;69.50;100268.27;125700;1087;113964;-57
2021/07/08 03:20:37;;;;;;;7.48;5.10;;;;;;;21.05;69.32;100275.35;130345;1085;22576;-58
2021/07/08 03:23:07;;;;;;;7.15;4.98;;;;;;;21.10;69.40;100278.81;130370;1087;113921;-58
2021/07/08 03:25:35;;;;;;;15.43;6.65;;;;;;;21.15;69.62;100281.48;130511;1087;22559;-58
2021/07/08 03:28:05;;;;;;;11.30;5.20;;;;;;;21.21;69.47;100282.22;130397;1087;114462;-58
2021/07/08 03:30:35;;;;;;;12.25;6.38;;;;;;;21.28;69.37;100281.81;130512;1087;22548;-58
2021/07/08 03:33:04;;;;;;;8.95;5.00;;;;;;;21.33;69.33;100268.67;130534;1086;22532;-58
2021/07/08 03:35:34;;;;;;;8.45;5.43;;;;;;;21.38;69.20;100276.86;130430;1086;113906;-58
2021/07/08 03:38:03;;;;;;;8.38;5.65;;;;;;;21.44;68.84;100283.11;130553;1085;23449;-58
2021/07/08 03:40:33;;;;;;;10.85;4.98;;;;;;;21.51;68.31;100284.31;130431;1086;113726;-58
2021/07/08 03:43:02;;;;;;;9.65;5.38;;;;;;;21.57;68.06;100286.98;130552;1085;22531;-58
2021/07/08 03:45:39;;;;;;;10.33;4.95;;;;;;;21.61;67.87;100277.73;130482;1085;22966;-58
2021/07/08 03:48:08;;;;;;;8.45;4.88;;;;;;;21.69;66.90;100281.70;130366;1087;113978;-58
2021/07/08 03:50:45;;;;;;;10.98;5.48;;;;;;;21.77;66.79;100283.75;130504;1089;23451;-58
2021/07/08 03:53:14;;;;;;;11.48;5.50;;;;;;;21.81;66.60;100280.01;130402;1086;115385;-58
2021/07/08 03:55:43;;;;;;;6.90;5.10;;;;;;;21.87;66.36;100280.72;130517;1087;22588;-58
2021/07/08 03:58:12;;;;;;;8.43;4.80;;;;;;;21.93;66.69;100289.75;130414;1086;114377;-58
2021/07/08 04:00:42;;;;;;;7.80;4.95;;;;;;;21.98;66.62;100287.65;130495;1085;22577;-58
2021/07/08 04:03:12;;;;;;;10.53;5.00;;;;;;;22.07;66.54;100285.81;130484;1087;23360;-58
2021/07/08 04:05:42;;;;;;;7.08;5.15;;;;;;;22.15;66.19;100296.14;130405;1087;114154;-58
2021/07/08 04:08:11;;;;;;;9.88;5.33;;;;;;;22.21;65.88;100297.66;130495;1087;22574;-58
2021/07/08 04:10:40;;;;;;;12.38;4.88;;;;;;;22.29;66.00;100298.02;130426;1087;114405;-58
2021/07/08 04:13:11;;;;;;;13.15;4.93;;;;;;;22.33;65.34;100299.03;130495;1087;23378;-58
2021/07/08 04:15:40;;;;;;;9.28;5.40;;;;;;;22.38;65.35;100298.88;130498;1087;22534;-58
2021/07/08 04:18:10;;;;;;;8.30;4.93;;;;;;;22.43;65.06;100307.09;130388;1085;113747;-58
2021/07/08 04:20:40;;;;;;;7.23;4.98;;;;;;;22.49;65.25;100305.83;130499;1087;22732;-58
2021/07/08 04:23:08;;;;;;;5.38;4.88;;;;;;;22.55;65.48;100307.31;130401;1085;114352;-58
2021/07/08 04:25:38;;;;;;;10.03;5.10;;;;;;;22.60;65.46;100304.41;130517;1087;22548;-58
2021/07/08 04:28:07;;;;;;;9.70;4.80;;;;;;;22.69;65.24;100307.22;130382;1086;114677;-58
2021/07/08 04:30:37;;;;;;;7.18;4.75;;;;;;;22.76;65.15;100304.82;130504;1087;22586;-58
2021/07/08 04:33:12;;;;;;;13.98;5.50;;;;;;;22.82;65.40;100312.71;130517;1087;22530;-58
2021/07/08 04:35:41;;;;;;;8.20;4.80;;;;;;;22.89;65.36;100318.64;130410;1087;114492;-58
2021/07/08 04:38:11;;;;;;;7.90;5.20;;;;;;;22.95;64.69;100319.30;130502;1086;22538;-58
2021/07/08 04:40:40;;;;;;;9.83;4.70;;;;;;;23.01;63.70;100315.25;130374;1087;114320;-58
2021/07/08 04:43:10;;;;;;;9.43;4.93;;;;;;;23.03;63.58;100324.09;130524;1085;22692;-58
2021/07/08 04:45:39;;;;;;;8.55;4.90;;;;;;;23.03;63.29;100326.05;130510;1087;22518;-58
2021/07/08 04:48:08;;;;;;;8.08;5.50;;;;;;;23.07;63.63;100332.61;130395;1087;114209;-58
2021/07/08 04:50:37;;;;;;;6.40;4.70;;;;;;;23.11;64.18;100328.03;130472;1087;22593;-58
2021/07/08 04:53:06;;;;;;;6.75;4.85;;;;;;;23.17;63.45;100326.75;130389;1090;114468;-58
2021/07/08 04:55:35;;;;;;;10.60;4.78;;;;;;;23.23;63.34;100333.78;130550;1086;22584;-58
2021/07/08 04:58:04;;;;;;;9.10;4.78;;;;;;;23.30;63.58;100338.89;130364;1088;114237;-58
2021/07/08 05:00:33;;;;;;;11.25;5.18;;;;;;;23.35;63.54;100338.75;130519;1087;22548;-58
2021/07/08 05:03:09;;;;;;;12.10;5.85;;;;;;;23.42;63.58;100345.46;130482;1086;23224;-58
2021/07/08 05:05:38;;;;;;;8.28;4.68;;;;;;;23.48;63.20;100341.40;130320;1087;114181;-59
2021/07/08 05:08:07;;;;;;;13.70;5.15;;;;;;;23.60;63.35;100349.14;130487;1086;22546;-58
2021/07/08 05:10:37;;;;;;;9.00;5.55;;;;;;;23.72;62.40;100346.53;130412;1085;114170;-58
2021/07/08 05:13:08;;;;;;;9.53;5.68;;;;;;;23.81;62.22;100349.31;130513;1087;22539;-58
2021/07/08 05:15:37;;;;;;;8.88;5.05;;;;;;;23.90;61.97;100353.76;130517;1087;22570;-58
2021/07/08 05:18:06;;;;;;;5.23;4.73;;;;;;;24.02;62.37;100355.89;130421;1087;113801;-58
2021/07/08 05:20:37;;;;;;;10.73;5.10;;;;;;;24.18;62.33;100347.86;130471;1086;23312;-58
2021/07/08 05:23:15;;;;;;;11.55;5.63;;;;;;;24.37;60.93;100351.16;130388;1087;114097;-58
2021/07/08 05:25:45;;;;;;;13.68;5.10;;;;;;;24.59;61.07;100350.94;130491;1087;23124;-58
2021/07/08 05:28:14;;;;;;;8.03;4.88;;;;;;;24.89;60.02;100353.81;130311;1087;114594;-58
2021/07/08 05:30:44;;;;;;;10.08;4.45;;;;;;;25.26;58.99;100357.77;130506;1085;22568;-58
2021/07/08 05:33:13;;;;;;;7.80;4.50;;;;;;;25.67;57.23;100359.89;130516;1087;23173;-58
2021/07/08 05:35:42;;;;;;;6.43;4.45;;;;;;;26.08;56.45;100352.67;130398;1087;113733;-58
2021/07/08 05:38:11;;;;;;;10.38;4.50;;;;;;;26.48;55.78;100353.80;130504;1086;22574;-58
2021/07/08 05:40:40;;;;;;;12.33;4.95;;;;;;;26.89;54.48;100352.86;130393;1085;114661;-58
2021/07/08 05:43:09;;;;;;;14.03;4.60;;;;;;;27.29;53.25;100353.03;130483;1089;22546;-58
2021/07/08 05:45:38;;;;;;;10.23;3.90;;;;;;;27.64;52.66;100347.80;130511;1086;22564;-58
2021/07/08 05:48:07;;;;;;;8.93;4.65;;;;;;;27.92;50.62;100352.64;130408;1087;113848;-58
2021/07/08 05:50:36;;;;;;;8.88;4.23;;;;;;;28.13;50.37;100347.69;130500;1087;23222;-58
2021/07/08 05:53:05;;;;;;;13.55;4.65;;;;;;;28.31;50.04;100345.41;130325;1086;114807;-58
2021/07/08 05:55:34;;;;;;;7.30;4.38;;;;;;;28.50;48.70;100346.38;130454;1085;22568;-58
2021/07/08 05:58:03;;;;;;;8.08;3.90;;;;;;;28.68;48.27;100348.85;130384;1086;114047;-58
2021/07/08 06:00:32;;;;;;;11.05;3.90;;;;;;;28.84;48.26;100352.53;130505;1087;22534;-58
2021/07/08 06:03:02;;;;;;;7.60;3.45;;;;;;;28.96;47.45;100349.64;130483;1087;23175;-58
2021/07/08 06:05:31;;;;;;;4.95;3.25;;;;;;;29.03;46.59;100352.61;130414;1087;113901;-57
2021/07/08 06:08:00;;;;;;;11.18;4.15;;;;;;;29.01;47.33;100357.77;130508;1087;22604;-58
2021/07/08 06:10:33;;;;;;;9.58;4.28;;;;;;;28.94;47.21;100353.97;130361;1087;114307;-58
2021/07/08 06:13:11;;;;;;;13.45;4.63;;;;;;;28.81;47.02;100356.05;130520;1087;22536;-57
2021/07/08 06:15:42;;;;;;;7.90;3.85;;;;;;;28.67;47.24;100355.63;130417;1086;22540;-58
2021/07/08 06:18:11;;;;;;;9.73;3.78;;;;;;;28.59;47.99;100354.61;130322;1087;113736;-58
2021/07/08 06:20:40;;;;;;;6.68;3.70;;;;;;;28.53;47.75;100363.66;130472;1087;22522;-58
2021/07/08 06:23:09;;;;;;;9.93;4.43;;;;;;;28.38;47.00;100360.45;130363;1087;115392;-57
2021/07/08 06:25:38;;;;;;;15.45;5.60;;;;;;;28.26;47.81;100363.31;130421;1087;22536;-57
2021/07/08 06:28:07;;;;;;;18.15;3.73;;;;;;;28.15;47.34;100356.52;130397;1087;114289;-57
2021/07/08 06:30:37;;;;;;;8.50;4.68;;;;;;;28.09;48.59;100366.38;130438;1089;23092;-58
2021/07/08 06:33:06;;;;;;;16.83;4.33;;;;;;;28.02;48.79;100369.77;130485;1087;23344;-57
2021/07/08 06:35:35;;;;;;;13.25;4.73;;;;;;;27.99;49.01;100375.28;129497;1087;114446;-57
2021/07/08 06:38:04;;;;;;;12.25;4.48;;;;;;;27.96;48.22;100382.41;125793;1087;23076;-55
2021/07/08 06:40:34;;;;;;;10.28;4.10;;;;;;;27.93;49.06;100371.90;130378;1087;114447;-57
2021/07/08 06:43:03;;;;;;;19.48;5.38;;;;;;;27.96;48.74;100375.98;130533;1087;22497;-57
2021/07/08 06:45:35;;;;;;;11.43;4.58;;;;;;;27.97;48.23;100377.62;130494;1087;22560;-57
2021/07/08 06:48:09;;;;;;;13.55;4.58;;;;;;;27.97;49.08;100372.02;130444;1087;114055;-57
2021/07/08 06:50:39;;;;;;;17.65;5.60;;;;;;;27.97;48.52;100380.41;130528;1087;22549;-57
2021/07/08 06:53:07;;;;;;;18.10;4.63;;;;;;;27.90;48.54;100378.20;130408;1087;114078;-57
2021/07/08 06:55:37;;;;;;;28.88;5.98;;;;;;;27.79;48.39;100382.66;130519;1086;22597;-55
2021/07/08 06:58:06;;;;;;;19.45;5.80;;;;;;;27.73;48.18;100384.06;130420;1087;114591;-57
2021/07/08 07:00:38;;;;;;;20.52;5.08;;;;;;;27.74;46.76;100383.71;130524;1085;22511;-57
2021/07/08 07:03:08;;;;;;;16.00;3.65;;;;;;;27.76;46.50;100384.17;130491;1087;22701;-57
2021/07/08 07:05:37;;;;;;;14.25;3.93;;;;;;;27.80;45.95;100382.31;129536;1086;114196;-57
2021/07/08 07:08:07;;;;;;;14.60;4.63;;;;;;;27.83;46.53;100382.78;130507;1085;22645;-57
2021/07/08 07:10:36;;;;;;;12.13;4.48;;;;;;;27.83;46.30;100386.40;130421;1087;115002;-57
2021/07/08 07:13:25;;;;;;;11.85;4.25;;;;;;;27.80;46.72;100382.31;130541;1087;22552;-57
2021/07/08 07:15:53;;;;;;;15.80;4.38;;;;;;;27.76;47.73;100391.77;130418;1085;114204;-57
2021/07/08 07:18:24;;;;;;;18.90;4.00;;;;;;;27.72;47.59;100391.64;130546;1087;23291;-57
2021/07/08 07:20:52;;;;;;;19.18;4.80;;;;;;;27.69;47.38;100389.57;130448;1087;23259;-57
2021/07/08 07:23:22;;;;;;;9.45;4.23;;;;;;;27.73;48.45;100393.28;130404;1087;113440;-57
2021/07/08 07:25:50;;;;;;;14.83;3.65;;;;;;;27.79;47.99;100399.47;130502;1087;22518;-57
2021/07/08 07:28:19;;;;;;;8.00;3.13;;;;;;;27.85;47.34;100397.22;130405;1087;114663;-57
2021/07/08 07:30:49;;;;;;;14.28;3.75;;;;;;;27.92;46.13;100400.26;130525;1087;23364;-57
2021/07/08 07:33:21;;;;;;;7.08;2.98;;;;;;;27.95;45.69;100394.78;130520;1085;22536;-57
2021/07/08 07:35:50;;;;;;;10.78;3.93;;;;;;;27.97;46.58;100398.05;129161;1086;113976;-56
2021/07/08 07:38:19;;;;;;;4.38;3.15;;;;;;;27.98;46.52;100396.88;125739;1087;22778;-55
2021/07/08 07:40:48;;;;;;;6.90;2.78;;;;;;;28.00;46.44;100402.09;130435;1086;114389;-57
2021/07/08 07:43:17;;;;;;;10.90;3.80;;;;;;;28.04;46.07;100394.63;130533;1086;22512;-57
2021/07/08 07:45:49;;;;;;;7.23;3.28;;;;;;;28.05;45.14;100394.28;130506;1086;23366;-57
2021/07/08 07:48:18;;;;;;;5.45;3.58;;;;;;;28.04;46.13;100406.65;130383;1087;114020;-57
2021/07/08 07:50:46;;;;;;;4.38;2.75;;;;;;;28.03;46.43;100393.81;130524;1087;22521;-57
2021/07/08 07:53:15;;;;;;;5.25;3.50;;;;;;;28.06;44.87;100400.70;130418;1085;114346;-57
2021/07/08 07:55:44;;;;;;;2.93;2.73;;;;;;;28.03;44.47;100401.39;130533;1087;22553;-57
2021/07/08 07:58:13;;;;;;;5.18;2.85;;;;;;;28.01;44.75;100407.35;130410;1085;114410;-57
2021/07/08 08:00:42;;;;;;;10.68;3.53;;;;;;;28.02;45.62;100413.77;130521;1085;22543;-57
2021/07/08 08:03:11;;;;;;;5.83;2.95;;;;;;;28.07;46.67;100405.13;130533;1086;22624;-57
2021/07/08 08:05:41;;;;;;;6.70;3.28;;;;;;;28.10;45.58;100410.03;130445;1087;114307;-57
2021/07/08 08:08:30;;;;;;;6.80;3.38;;;;;;;28.11;45.32;100406.06;130518;1087;22541;-57
2021/07/08 08:11:00;;;;;;;6.50;3.03;;;;;;;28.12;45.68;100408.52;130395;1087;115060;-57
2021/07/08 08:13:30;;;;;;;7.63;3.53;;;;;;;28.17;45.57;100415.84;130503;1087;22578;-57
2021/07/08 08:15:59;;;;;;;;;;;;;;;28.23;45.71;100402.44;128845;1087;115067;-55
2021/07/08 08:18:48;;;;;;;7.30;3.30;;;;;;;28.27;44.85;100406.98;125780;1087;22755;-56
2021/07/08 08:21:18;;;;;;;4.63;3.10;;;;;;;28.26;44.99;100412.95;129285;1085;64847;-86
2021/07/08 08:23:48;;;;;;;7.30;3.45;;;;;;;28.20;45.35;100403.14;129074;1085;114289;-87
2021/07/08 08:26:17;;;;;;;9.45;3.33;;;;;;;28.27;44.75;100414.58;128976;1085;23946;-86
2021/07/08 08:28:46;;;;;;;8.63;3.63;;;;;;;28.28;44.33;100410.61;128849;1087;114511;-84
2021/07/08 08:31:15;;;;;;;3.45;3.13;;;;;;;28.25;43.99;100412.13;128807;1087;23159;-84
2021/07/08 08:33:44;;;;;;;6.30;3.50;;;;;;;28.24;43.96;100418.91;128933;1087;22808;-85
2021/07/08 08:36:14;;;;;;;9.18;4.00;;;;;;;28.21;43.96;100407.58;128966;1087;113621;-86
2021/07/08 08:38:43;;;;;;;9.00;3.35;;;;;;;28.21;45.15;100411.20;129258;1085;22870;-85
2021/07/08 08:41:12;;;;;;;5.15;3.53;;;;;;;28.23;45.13;100408.86;129190;1086;114267;-86
2021/07/08 08:43:41;;;;;;;8.35;3.48;;;;;;;28.25;45.01;100409.33;128943;1087;23612;-85
2021/07/08 08:46:12;;;;;;;6.43;3.20;;;;;;;28.28;43.68;100407.80;128624;1087;114079;-83
2021/07/08 08:48:41;;;;;;;7.90;3.83;;;;;;;28.26;42.59;100399.75;128597;1087;23356;-86
2021/07/08 08:51:09;;;;;;;8.63;4.05;;;;;;;28.20;42.57;100406.77;128894;1087;22745;-85
2021/07/08 08:53:38;;;;;;;3.73;3.15;;;;;;;28.17;43.99;100410.23;128746;1087;114048;-85
2021/07/08 08:56:07;;;;;;;6.40;3.63;;;;;;;28.23;44.12;100408.05;128975;1089;23370;-86
2021/07/08 08:58:41;;;;;;;11.80;3.90;;;;;;;28.31;45.04;100402.28;128790;1087;114322;-83
2021/07/08 09:01:10;;;;;;;7.58;4.10;;;;;;;28.38;44.70;100402.50;128781;1089;22778;-84
2021/07/08 09:03:40;;;;;;;6.78;3.83;;;;;;;28.47;44.36;100403.16;128886;1090;22810;-84
2021/07/08 09:06:11;;;;;;;4.83;4.18;;;;;;;28.52;44.06;100401.28;128887;1087;114651;-87
2021/07/08 09:08:49;;;;;;;6.15;3.98;;;;;;;28.53;44.32;100412.14;129018;1088;22881;-86
2021/07/08 09:11:19;;;;;;;6.68;4.08;;;;;;;28.50;44.81;100402.45;128747;1089;113760;-86
2021/07/08 09:14:04;;;;;;;8.75;4.03;;;;;;;28.48;43.94;100399.19;128658;1089;22783;-86
2021/07/08 09:16:38;;;;;;;5.75;3.98;;;;;;;28.46;44.37;100406.31;128593;1088;114029;-84
2021/07/08 09:19:08;;;;;;;8.60;4.28;;;;;;;28.47;44.93;100399.53;129937;1088;24118;-83
2021/07/08 09:21:40;;;;;;;23.08;20.85;;;;;;;28.49;44.37;100405.61;128833;1089;23353;-86
2021/07/08 09:24:17;;;;;;;15.75;12.33;;;;;;;28.49;45.00;100400.81;128992;1086;114146;-86
2021/07/08 09:27:09;;;;;;;165.33;146.83;;;;;;;28.50;45.39;100402.45;130531;1087;22552;-89
2021/07/08 09:29:44;;;;;;;28.35;21.65;;;;;;;28.54;44.54;100404.55;130409;1086;114779;-88
2021/07/08 09:32:21;;;;;;;11.20;5.88;;;;;;;28.56;44.55;100410.62;130483;1090;23402;-88
2021/07/08 09:34:53;;;;;;;8.15;4.98;;;;;;;28.61;44.56;100410.34;130414;1088;113722;-92
2021/07/08 09:37:24;;;;;;;9.58;4.13;;;;;;;28.61;43.04;100405.55;130525;1085;22537;-90
2021/07/08 09:39:53;;;;;;;12.30;3.78;;;;;;;28.58;43.17;100403.45;130506;1090;22539;-88
2021/07/08 09:43:30;;;;;;;8.28;4.60;;;;;;;28.54;43.81;100404.55;125625;1091;22789;-63
2021/07/08 09:46:12;;;;;;;8.23;4.25;;;;;;;28.49;43.99;100402.80;130006;1090;113752;-64
2021/07/08 09:49:02;;;;;;;5.05;3.50;;;;;;;28.44;42.89;100398.25;129942;1093;23281;-64
2021/07/08 09:51:31;;;;;;;7.13;4.13;;;;;;;28.41;43.88;100398.99;129990;1093;23180;-64
2021/07/08 09:54:14;;;;;;;7.55;3.85;;;;;;;28.41;44.27;100401.80;129814;1093;113931;-64
2021/07/08 09:56:53;;;;;;;5.70;3.50;;;;;;;28.43;44.91;100401.41;129911;1093;23097;-64
2021/07/08 09:59:33;;;;;;;6.53;3.83;;;;;;;28.42;43.58;100392.19;129900;1092;113555;-63
2021/07/08 10:02:02;;;;;;;5.63;3.68;;;;;;;28.41;43.64;100395.38;129833;1093;24035;-63
2021/07/08 10:04:31;;;;;;;7.70;3.93;;;;;;;28.40;44.03;100391.75;129912;1093;113882;-64
2021/07/08 10:07:00;;;;;;;10.83;5.65;;;;;;;28.42;43.88;100380.19;129872;1093;22524;-63
2021/07/08 10:09:30;;;;;;;13.98;4.98;;;;;;;28.46;43.51;100386.69;129771;1093;23672;-64
2021/07/08 10:12:07;;;;;;;9.60;4.25;;;;;;;28.53;44.40;100378.49;129718;1093;114091;-63
2021/07/08 10:14:36;;;;;;;6.38;3.70;;;;;;;28.62;43.84;100381.13;129868;1092;22565;-63
2021/07/08 10:17:08;;;;;;;7.65;4.33;;;;;;;28.71;42.42;100378.99;129734;1093;113851;-63
2021/07/08 10:19:37;;;;;;;4.88;3.68;;;;;;;28.75;42.68;100379.88;129795;1093;22563;-64
2021/07/08 10:22:10;;;;;;;8.40;3.90;;;;;;;28.79;42.60;100369.62;129708;1093;113790;-64
2021/07/08 10:24:39;;;;;;;6.80;3.55;;;;;;;28.83;41.91;100370.53;129853;1092;23054;-63
2021/07/08 10:27:08;;;;;;;6.95;3.58;;;;;;;28.87;41.76;100370.61;129806;1093;22558;-63
2021/07/08 10:29:41;;;;;;;6.53;3.58;;;;;;;28.88;42.18;100372.23;129718;1092;114117;-63
2021/07/08 10:32:12;;;;;;;7.45;3.98;;;;;;;28.92;43.21;100370.34;129826;1093;22635;-64
2021/07/08 10:34:48;;;;;;;9.20;3.68;;;;;;;28.97;42.06;100370.91;129626;1095;115660;-63
2021/07/08 10:37:26;;;;;;;5.95;4.03;;;;;;;29.04;42.01;100371.08;129725;1094;23487;-63
2021/07/08 10:40:27;;;;;;;7.35;3.65;;;;;;;29.06;42.21;100368.73;129668;1092;113980;-63
2021/07/08 10:43:10;;;;;;;8.85;3.58;;;;;;;29.03;41.15;100372.25;129758;1096;22803;-62
2021/07/08 10:45:42;;;;;;;14.35;8.65;;;;;;;28.94;41.00;100374.43;129769;1093;22553;-70
2021/07/08 10:48:13;;;;;;;13.65;7.83;;;;;;;28.88;42.22;100377.84;129679;1093;114853;-70
2021/07/08 10:50:46;;;;;;;7.28;4.50;;;;;;;28.87;42.21;100370.61;129796;1093;22606;-66
2021/07/08 10:53:28;;;;;;;5.83;4.03;;;;;;;28.87;41.75;100365.00;129672;1093;113911;-64
2021/07/08 10:56:03;;;;;;;4.70;4.15;;;;;;;28.92;42.03;100367.55;129773;1093;22618;-64
2021/07/08 10:58:39;;;;;;;5.93;3.15;;;;;;;28.98;42.54;100363.31;129669;1093;115128;-64
2021/07/08 11:01:37;;;;;;;10.83;3.60;;;;;;;29.01;41.67;100360.57;129770;1093;24304;-64
2021/07/08 11:04:06;;;;;;;4.60;3.40;;;;;;;29.06;42.06;100356.69;129642;1093;115568;-63
2021/07/08 11:06:37;;;;;;;10.08;3.68;;;;;;;29.09;41.28;100370.82;129799;1092;22555;-64
2021/07/08 11:09:13;;;;;;;3.80;3.28;;;;;;;29.10;40.24;100361.23;129832;1092;22595;-64
2021/07/08 11:11:45;;;;;;;7.63;3.63;;;;;;;29.11;40.96;100359.23;129722;1093;113605;-64
2021/07/08 11:14:20;;;;;;;11.40;3.80;;;;;;;29.10;40.52;100357.61;129819;1093;22535;-64
2021/07/08 11:17:02;;;;;;;3.80;3.50;;;;;;;29.04;39.73;100353.42;129736;1092;114082;-64
2021/07/08 11:19:34;;;;;;;8.33;3.45;;;;;;;29.00;41.30;100358.16;129843;1093;23150;-64
2021/07/08 11:22:08;;;;;;;10.25;3.48;;;;;;;28.95;41.25;100347.19;129714;1093;114083;-64
2021/07/08 11:24:43;;;;;;;27.25;4.43;;;;;;;28.91;41.92;100352.70;129824;1093;22548;-63
2021/07/08 11:27:29;;;;;;;4.43;3.50;;;;;;;28.92;42.05;100356.33;129829;1093;22558;-64
2021/07/08 11:29:59;;;;;;;4.73;3.33;;;;;;;28.96;41.09;100351.63;129690;1093;116678;-64